Cape May Court House, NJ

10:31 PM EST on December 27, 2014 (GMT -0500)
Millville Municipal | Change Station
CLOSE
Current Station
Airport
Location: Millville,
Elevation: 82 ft
Nearby Weather Stations

Elev 82 ft 39.37 °N, 75.08 °W | Updated 37 minutes ago

Partly Cloudy
Partly Cloudy
36 °F
Feels Like 36 °F
N
0
Wind Variable Wind from North

Today
High -- | Low -- °F
--% Chance of Precip.
Yesterday
High -- | Low -- °F
Precip. -- in
7:17 AM 4:43 PM
Waxing Crescent, 43% visible
Pressure 30.15 in
Visibility 10.0 miles
Clouds Clear
Dew Point 34 °F
Humidity 93%
Rainfall 0.00 in
Snow Depth Not available.
UV 0 out of 12
Pollen .10 out of 12
Air Quality Not available.
Flu Activity Not available.
METAR KMIV 280254Z AUTO 00000KT 10SM CLR 02/01 A3015 RMK AO2 SLP210 T00220011 56015

More Conditions Fewer Conditions

Pressure 30.15 in
Visibility 10.0 miles
Clouds Clear
Dew Point 34 °F
Humidity 93%
Rainfall 0.00 in
Snow Depth Not available.
UV 0 out of 12
Pollen .10 out of 12
Air Quality Not available.
Flu Activity Not available.
METAR KMIV 280254Z AUTO 00000KT 10SM CLR 02/01 A3015 RMK AO2 SLP210 T00220011 56015

More Conditions Fewer Conditions

10-Day Weather Forecast

Almanac

Astronomy

Dec. 27, 2014 Rise Set
Actual Time
Civil Twilight
Nautical Twilight
Astronomical Twilight
Moon
Length of Visible Light
Length of Day
Tomorrow will be .
, % of the Moon is Illuminated

Today's Extremes

State Highs State Lows

Community

WunderPhotos

Upload Photos

1,781,180 photos uploaded!

WunderBlogs® & News

Nearby

Air Quality

  Air Quality AQ Index Pollutant
Not available.

Snow Depth

Station Depth Elevation

Earthquake Activity

City Distance Mag. Time & Date
Minimum magnitude displayed is 2.5.

Coastal Water Temperatures

Place Temperature

Nearby Weather Stations